createdAt,value
2019-04-22T00:00:36.029Z,1.53
2019-04-22T00:03:09.204Z,1.80
2019-04-22T00:06:01.131Z,1.47
2019-04-22T00:08:43.075Z,1.10
2019-04-22T00:11:23.970Z,1.07
2019-04-22T00:13:58.149Z,1.30
2019-04-22T00:16:37.783Z,1.17
2019-04-22T00:19:24.312Z,1.47
2019-04-22T00:22:01.195Z,1.50
2019-04-22T00:24:23.997Z,2.30
2019-04-22T00:27:04.090Z,1.70
2019-04-22T00:32:24.087Z,1.57
2019-04-22T00:35:09.970Z,1.10
2019-04-22T00:37:54.766Z,1.00
2019-04-22T00:40:32.289Z,1.17
2019-04-22T00:43:06.725Z,1.37
2019-04-22T00:45:44.821Z,1.10
2019-04-22T00:48:16.487Z,1.77
2019-04-22T00:50:55.677Z,1.97
2019-04-22T00:53:30.070Z,1.53
2019-04-22T00:58:45.335Z,2.07
2019-04-22T01:06:28.643Z,1.67
2019-04-22T01:09:08.739Z,1.93
2019-04-22T01:11:37.851Z,1.83
2019-04-22T01:14:22.996Z,1.57
2019-04-22T01:17:01.487Z,1.87
2019-04-22T01:19:39.036Z,2.10
2019-04-22T01:22:13.126Z,1.93
2019-04-22T01:24:48.610Z,2.17
2019-04-22T01:29:51.791Z,2.60
2019-04-22T01:32:18.671Z,1.90
2019-04-22T01:35:04.802Z,1.77
2019-04-22T01:37:40.458Z,2.30
2019-04-22T01:40:24.219Z,1.57
2019-04-22T01:43:03.779Z,2.00
2019-04-22T01:48:36.643Z,2.13
2019-04-22T01:51:07.869Z,1.97
2019-04-22T01:53:43.008Z,3.23
2019-04-22T01:56:20.903Z,2.30
2019-04-22T01:58:44.095Z,2.50
2019-04-22T02:01:30.878Z,1.50
2019-04-22T02:04:01.237Z,3.00
2019-04-22T02:06:46.309Z,1.90
2019-04-22T02:11:56.379Z,1.63
2019-04-22T02:14:33.038Z,1.80
2019-04-22T02:19:35.716Z,1.83
2019-04-22T02:22:24.835Z,3.40
2019-04-22T02:24:50.893Z,2.90
2019-04-22T02:27:32.532Z,2.53
2019-04-22T02:29:58.024Z,2.17
2019-04-22T02:33:20.012Z,1.53
2019-04-22T02:35:55.082Z,1.70
2019-04-22T02:38:19.963Z,1.47
2019-04-22T02:41:16.048Z,1.63
2019-04-22T02:49:01.959Z,2.90
2019-04-22T02:51:28.147Z,2.10
2019-04-22T02:56:37.908Z,1.90
2019-04-22T03:02:14.522Z,2.97
2019-04-22T03:07:37.716Z,2.20
2019-04-22T03:10:29.872Z,1.43
2019-04-22T03:16:17.880Z,1.77
2019-04-22T03:18:57.097Z,3.83
2019-04-22T03:21:18.822Z,1.67
2019-04-22T03:28:57.108Z,2.30
2019-04-22T03:32:35.995Z,1.20
2019-04-22T03:37:22.431Z,1.70
2019-04-22T03:47:33.602Z,2.67
2019-04-22T03:50:17.623Z,2.40
2019-04-22T03:52:30.974Z,1.90
2019-04-22T04:00:17.376Z,4.80
2019-04-22T04:08:26.732Z,3.03
2019-04-22T04:10:53.561Z,3.60
2019-04-22T04:13:39.570Z,2.70
2019-04-22T04:16:10.880Z,2.47
2019-04-22T04:24:11.320Z,2.87
2019-04-22T04:32:09.768Z,2.77
2019-04-22T04:34:50.572Z,3.57
2019-04-22T04:39:43.290Z,2.70
2019-04-22T04:42:25.484Z,3.30
2019-04-22T04:47:43.579Z,2.47
2019-04-22T04:50:05.861Z,3.33
2019-04-22T04:53:01.244Z,2.03
2019-04-22T04:58:04.115Z,2.10
2019-04-22T05:03:10.619Z,2.83
2019-04-22T05:10:56.515Z,3.13
2019-04-22T05:13:46.144Z,3.00
2019-04-22T05:18:49.211Z,2.90
2019-04-22T05:21:16.415Z,3.00
2019-04-22T05:26:48.464Z,4.47
2019-04-22T05:32:27.006Z,3.13
2019-04-22T05:35:25.314Z,3.80
2019-04-22T05:40:20.044Z,4.67
2019-04-22T05:42:51.525Z,4.03
2019-04-22T05:45:32.800Z,4.53
2019-04-22T05:48:15.025Z,5.77
2019-04-22T05:50:52.647Z,4.30
2019-04-22T05:53:25.762Z,3.07
2019-04-22T05:58:46.452Z,4.00
2019-04-22T06:04:11.559Z,3.67
2019-04-22T06:06:42.955Z,3.67
2019-04-22T06:12:18.862Z,4.13
2019-04-22T06:15:12.171Z,4.33
2019-04-22T06:18:07.943Z,3.13
2019-04-22T06:20:53.910Z,4.10
2019-04-22T06:29:09.257Z,4.60
2019-04-22T06:31:55.958Z,4.67
2019-04-22T06:34:22.132Z,5.10
2019-04-22T06:40:02.495Z,6.30
2019-04-22T06:42:36.639Z,8.43
2019-04-22T06:48:01.920Z,5.07
2019-04-22T06:50:36.823Z,4.90
2019-04-22T06:53:25.054Z,3.90
2019-04-22T06:58:25.685Z,3.40
2019-04-22T07:01:09.428Z,3.17
2019-04-22T07:03:53.686Z,4.30
2019-04-22T07:11:43.231Z,3.20
2019-04-22T07:14:22.482Z,2.87
2019-04-22T07:17:02.240Z,3.85
2019-04-22T07:19:45.330Z,3.65
2019-04-22T07:22:26.028Z,4.03
2019-04-22T07:24:58.991Z,4.50
2019-04-22T07:27:37.307Z,3.80
2019-04-22T07:30:22.445Z,4.42
2019-04-22T07:35:36.019Z,3.77
2019-04-22T07:38:11.260Z,3.40
2019-04-22T07:40:48.687Z,3.33
2019-04-22T07:43:26.648Z,3.12
2019-04-22T07:49:02.095Z,4.15
2019-04-22T07:51:32.960Z,3.62
2019-04-22T07:54:01.451Z,4.00
2019-04-22T07:56:50.784Z,6.70
2019-04-22T07:59:09.595Z,5.60
2019-04-22T08:01:42.278Z,3.87
2019-04-22T08:07:12.878Z,5.22
2019-04-22T08:09:51.011Z,3.60
2019-04-22T08:12:28.156Z,3.77
2019-04-22T08:14:59.830Z,3.75
2019-04-22T08:20:18.937Z,3.35
2019-04-22T08:23:01.232Z,4.28
2019-04-22T08:25:32.945Z,4.45
2019-04-22T08:28:10.639Z,8.35
2019-04-22T08:30:50.576Z,4.03
2019-04-22T08:33:39.804Z,3.27
2019-04-22T08:38:52.841Z,3.12
2019-04-22T08:44:27.877Z,5.97
2019-04-22T08:49:18.918Z,4.05
2019-04-22T08:54:57.375Z,5.15
2019-04-22T08:57:40.896Z,4.17
2019-04-22T09:00:09.179Z,4.50
2019-04-22T09:02:46.838Z,3.80
2019-04-22T09:05:47.093Z,5.05
2019-04-22T09:10:51.805Z,3.90
2019-04-22T09:13:30.131Z,3.72
2019-04-22T09:16:08.897Z,5.12
2019-04-22T09:18:48.717Z,7.05
2019-04-22T09:21:30.487Z,5.33
2019-04-22T09:24:18.009Z,4.65
2019-04-22T09:27:22.654Z,3.83
2019-04-22T09:29:28.019Z,4.37
2019-04-22T09:32:06.848Z,4.17
2019-04-22T09:34:33.702Z,3.47
2019-04-22T09:43:31.790Z,3.75
2019-04-22T09:49:38.412Z,3.92
2019-04-22T09:58:16.171Z,4.97
2019-04-22T10:06:35.322Z,3.70
2019-04-22T10:11:39.178Z,4.55
2019-04-22T10:14:18.969Z,8.05
2019-04-22T10:19:38.727Z,4.03
2019-04-22T10:25:10.698Z,7.62
2019-04-22T10:27:51.381Z,7.12
2019-04-22T10:30:39.222Z,5.08
2019-04-22T10:33:08.544Z,4.90
2019-04-22T10:35:19.255Z,4.30
2019-04-22T10:37:52.444Z,5.33
2019-04-22T10:40:36.471Z,4.95
2019-04-22T10:43:11.508Z,6.40
2019-04-22T10:45:57.846Z,4.92
2019-04-22T10:48:34.361Z,4.35
2019-04-22T10:51:08.597Z,5.37
2019-04-22T10:53:42.094Z,4.40
2019-04-22T10:56:20.911Z,4.47
2019-04-22T10:59:14.239Z,4.62
2019-04-22T11:02:21.508Z,4.35
2019-04-22T11:04:30.424Z,4.40
2019-04-22T11:07:07.691Z,3.85
2019-04-22T11:09:51.776Z,4.10
2019-04-22T11:12:35.462Z,3.65
2019-04-22T11:15:12.248Z,3.35
2019-04-22T11:17:51.410Z,3.40
2019-04-22T11:20:26.070Z,4.28
2019-04-22T11:23:05.129Z,3.47
2019-04-22T11:25:47.814Z,4.80
2019-04-22T11:28:18.001Z,3.60
2019-04-22T11:30:56.397Z,3.25
2019-04-22T11:33:34.370Z,2.90
2019-04-22T11:36:15.687Z,3.90
2019-04-22T11:39:01.926Z,3.12
2019-04-22T11:41:47.395Z,3.52
2019-04-22T11:44:31.272Z,3.15
2019-04-22T11:47:09.646Z,3.30
2019-04-22T11:50:21.810Z,3.00
2019-04-22T11:52:35.072Z,3.50
2019-04-22T11:55:14.960Z,3.08
2019-04-22T11:58:01.436Z,2.70
2019-04-22T12:00:41.033Z,2.90
2019-04-22T12:03:28.573Z,3.72
2019-04-22T12:08:49.966Z,2.50
2019-04-22T12:11:24.014Z,2.70
2019-04-22T12:14:00.177Z,2.80
2019-04-22T12:16:39.403Z,2.50
2019-04-22T12:19:15.690Z,2.80
2019-04-22T12:21:57.249Z,3.90
2019-04-22T12:24:28.226Z,4.00
2019-04-22T12:27:00.300Z,2.77
2019-04-22T12:29:48.945Z,4.20
2019-04-22T12:32:27.807Z,3.58
2019-04-22T12:35:05.376Z,3.50
2019-04-22T12:37:47.175Z,2.80
2019-04-22T12:40:25.926Z,2.85
2019-04-22T12:42:49.112Z,3.10
2019-04-22T12:45:26.564Z,2.83
2019-04-22T12:48:02.110Z,3.17
2019-04-22T12:50:48.553Z,3.00
2019-04-22T12:53:16.734Z,2.70
2019-04-22T12:55:55.185Z,2.05
2019-04-22T12:58:25.589Z,2.90
2019-04-22T13:01:01.055Z,3.20
2019-04-22T13:03:32.003Z,3.60
2019-04-22T13:06:03.859Z,3.10
2019-04-22T13:08:37.917Z,3.00
2019-04-22T13:11:17.700Z,3.08
2019-04-22T13:13:54.835Z,3.15
2019-04-22T13:16:26.971Z,2.90
2019-04-22T13:19:05.642Z,3.80
2019-04-22T13:21:48.943Z,2.90
2019-04-22T13:24:25.789Z,3.30
2019-04-22T13:27:01.256Z,3.47
2019-04-22T13:29:37.110Z,3.33
2019-04-22T13:32:14.558Z,3.42
2019-04-22T13:34:57.964Z,2.90
2019-04-22T13:37:35.066Z,3.00
2019-04-22T13:40:19.251Z,3.17
2019-04-22T13:42:51.170Z,3.62
2019-04-22T13:45:30.519Z,3.77
2019-04-22T13:48:16.715Z,3.25
2019-04-22T13:51:21.928Z,2.87
2019-04-22T13:54:40.453Z,2.70
2019-04-22T13:56:35.709Z,2.65
2019-04-22T13:59:01.987Z,3.40
2019-04-22T14:01:34.727Z,2.80
2019-04-22T14:04:20.601Z,3.00
2019-04-22T14:06:56.686Z,2.98
2019-04-22T14:09:38.209Z,3.62
2019-04-22T14:12:16.245Z,3.42
2019-04-22T14:14:52.477Z,2.90
2019-04-22T14:17:27.050Z,2.80
2019-04-22T14:20:02.622Z,3.08
2019-04-22T14:22:39.110Z,2.70
2019-04-22T14:25:12.474Z,3.10
2019-04-22T14:27:55.879Z,2.80
2019-04-22T14:30:24.280Z,3.62
2019-04-22T14:32:55.967Z,2.62
2019-04-22T14:35:35.469Z,2.60
2019-04-22T14:38:14.090Z,3.10
2019-04-22T14:40:51.978Z,2.50
2019-04-22T14:46:57.109Z,2.67
2019-04-22T14:49:31.462Z,3.30
2019-04-22T14:52:10.709Z,2.70
2019-04-22T14:54:34.062Z,2.55
2019-04-22T14:56:52.062Z,2.52
2019-04-22T14:59:25.069Z,2.50
2019-04-22T15:01:59.042Z,2.35
2019-04-22T15:04:31.274Z,2.60
2019-04-22T15:07:16.917Z,3.80
2019-04-22T15:09:48.078Z,3.87
2019-04-22T15:12:31.291Z,3.37
2019-04-22T15:14:59.710Z,2.77
2019-04-22T15:17:36.708Z,2.45
2019-04-22T15:20:16.011Z,2.52
2019-04-22T15:22:52.656Z,2.65
2019-04-22T15:25:30.773Z,2.72
2019-04-22T15:28:05.673Z,2.40
2019-04-22T15:30:55.599Z,3.67
2019-04-22T15:33:15.253Z,2.30
2019-04-22T15:35:47.294Z,2.47
2019-04-22T15:38:22.755Z,2.30
2019-04-22T15:41:00.751Z,2.33
2019-04-22T15:43:43.700Z,2.40
2019-04-22T15:46:21.025Z,2.45
2019-04-22T15:49:02.153Z,2.00
2019-04-22T15:51:38.640Z,3.25
2019-04-22T15:54:21.864Z,2.47
2019-04-22T15:57:10.861Z,3.70
2019-04-22T16:00:14.449Z,2.72
2019-04-22T16:02:33.992Z,2.70
2019-04-22T16:05:08.597Z,6.42
2019-04-22T16:07:40.274Z,3.00
2019-04-22T16:10:15.840Z,5.80
2019-04-22T16:13:07.521Z,4.33
2019-04-22T16:15:34.240Z,3.47
2019-04-22T16:18:09.418Z,3.65
2019-04-22T16:20:56.313Z,4.72
2019-04-22T16:23:32.170Z,3.87
2019-04-22T16:26:15.268Z,3.08
2019-04-22T16:28:45.174Z,2.85
2019-04-22T16:31:21.664Z,2.58
2019-04-22T16:33:58.322Z,2.83
2019-04-22T16:39:28.871Z,3.67
2019-04-22T16:48:33.709Z,2.97
2019-04-22T16:51:13.873Z,3.73
2019-04-22T16:54:02.174Z,4.50
2019-04-22T16:56:33.942Z,3.07
2019-04-22T16:59:08.833Z,4.13
2019-04-22T17:01:54.456Z,3.60
2019-04-22T17:04:51.304Z,3.77
2019-04-22T17:07:40.560Z,2.80
2019-04-22T17:10:22.046Z,3.40
2019-04-22T17:13:02.339Z,3.43
2019-04-22T17:15:29.206Z,3.30
2019-04-22T17:18:03.276Z,3.60
2019-04-22T17:20:37.763Z,2.60
2019-04-22T17:23:11.755Z,2.50
2019-04-22T17:25:42.616Z,6.30
2019-04-22T17:28:15.059Z,3.13
2019-04-22T17:30:45.725Z,2.83
2019-04-22T17:33:16.863Z,4.20
2019-04-22T17:35:50.282Z,5.50
2019-04-22T17:38:31.075Z,2.97
2019-04-22T17:41:13.329Z,2.83
2019-04-22T17:43:53.864Z,3.00
2019-04-22T17:46:37.560Z,4.63
2019-04-22T17:49:34.284Z,4.30
2019-04-22T17:52:24.619Z,3.03
2019-04-22T17:54:56.235Z,3.53
2019-04-22T17:57:33.041Z,4.40
2019-04-22T18:00:11.412Z,4.77
2019-04-22T18:02:48.679Z,4.23
2019-04-22T18:05:16.293Z,4.07
2019-04-22T18:08:11.691Z,4.40
2019-04-22T18:10:47.640Z,4.77
2019-04-22T18:13:32.222Z,4.43
2019-04-22T18:16:02.339Z,6.47
2019-04-22T18:18:38.293Z,9.90
2019-04-22T18:21:05.890Z,4.63
2019-04-22T18:23:24.901Z,5.77
2019-04-22T18:26:14.114Z,5.37
2019-04-22T18:28:50.962Z,5.80
2019-04-22T18:33:50.174Z,5.93
2019-04-22T18:36:36.073Z,6.90
2019-04-22T18:39:20.940Z,6.57
2019-04-22T18:41:44.018Z,6.13
2019-04-22T18:44:22.640Z,5.77
2019-04-22T18:46:52.446Z,5.47
2019-04-22T18:49:26.909Z,6.23
2019-04-22T18:52:18.429Z,4.67
2019-04-22T18:54:57.625Z,6.40
2019-04-22T18:57:29.888Z,5.77
2019-04-22T19:00:00.127Z,4.20
2019-04-22T19:02:35.105Z,4.53
2019-04-22T19:05:19.902Z,6.67
2019-04-22T19:08:06.952Z,5.00
2019-04-22T19:10:46.389Z,6.07
2019-04-22T19:13:37.665Z,5.77
2019-04-22T19:39:21.002Z,4.63
2019-04-22T19:46:07.197Z,5.17
2019-04-22T19:52:19.406Z,6.30
2019-04-22T20:00:10.906Z,6.87
2019-04-22T20:21:14.284Z,10.73
2019-04-22T20:27:05.673Z,8.93
2019-04-22T20:29:49.754Z,10.20
2019-04-22T20:38:45.399Z,9.03
2019-04-22T20:41:36.625Z,9.10
2019-04-22T20:53:23.010Z,6.90
2019-04-22T20:56:01.030Z,7.97
2019-04-22T21:01:34.427Z,8.73
2019-04-22T21:04:28.984Z,7.87
2019-04-22T21:10:06.565Z,6.87
2019-04-22T21:12:31.617Z,9.37
2019-04-22T21:15:19.403Z,7.30
2019-04-22T21:17:53.441Z,9.67
2019-04-22T21:20:48.049Z,7.27
2019-04-22T21:25:58.047Z,8.47
2019-04-22T21:31:32.405Z,9.43
2019-04-22T21:34:01.046Z,8.57
2019-04-22T21:36:56.016Z,7.90
2019-04-22T21:42:41.734Z,9.07
2019-04-22T21:45:13.315Z,9.10
2019-04-22T21:47:58.840Z,8.67
2019-04-22T21:50:41.364Z,8.00
2019-04-22T21:53:24.923Z,9.47
2019-04-22T21:56:13.003Z,8.37
2019-04-22T21:59:17.508Z,8.33
2019-04-22T22:02:31.361Z,7.97
2019-04-22T22:05:10.161Z,9.70
2019-04-22T22:07:52.129Z,11.27
2019-04-22T22:11:19.493Z,14.03
2019-04-22T22:14:10.292Z,12.63
2019-04-22T22:16:56.205Z,9.33
2019-04-22T22:20:09.984Z,10.90
2019-04-22T22:23:00.359Z,12.43
2019-04-22T22:28:52.232Z,13.00
2019-04-22T23:11:13.479Z,13.97
2019-04-22T23:16:57.722Z,12.40
2019-04-22T23:19:44.765Z,15.50
2019-04-22T23:23:03.843Z,16.23
2019-04-22T23:25:53.238Z,14.80
2019-04-22T23:28:25.764Z,13.90
2019-04-22T23:31:35.464Z,13.43
2019-04-22T23:40:38.838Z,15.00
2019-04-22T23:43:24.181Z,12.57
2019-04-22T23:45:50.410Z,14.13
2019-04-22T23:48:35.884Z,13.50
2019-04-22T23:51:16.467Z,13.03
